Brownlee, Nebraska
Current Conditions -  °F | °C
As of 11:55 PM on Tuesday 21 Oct 2014 (Local Time) from KTIF Reporting Station
Clear Clear  
Wind Chill: 65°   Ceiling: Unl
Heat Index: 65°   Visibility: 10mi
Dew Point: 57°   Wind: 13mph
Humidity: 75%   Direction: 160°SSE
Pressure: 29.9"   Gusts: NA
Location:  41.9263°N, 100.558°W
Report Text: KTIF 220455Z AUTO 16011KT 10SM CLR 18/14 A2990 RMK AO2 T01810137
Loading
Personal Weather Stations






























Interactive Weather Map
Tropical Storm Tracking
New forecast layout! Learn more

10-Day Weather Forecast

Advertisements
Track Severe Weather on mobile